sensor_id;sensor_type;location;lat;lon;timestamp;pressure;altitude;pressure_sealevel;temperature;humidity
40954;BME280;26686;50.130;8.710;2022-08-25T00:00:34;100261.38;;;24.39;39.91
40954;BME280;26686;50.130;8.710;2022-08-25T00:05:35;100266.81;;;24.39;40.17
40954;BME280;26686;50.130;8.710;2022-08-25T00:10:38;100264.50;;;24.35;40.37
40954;BME280;26686;50.130;8.710;2022-08-25T00:15:40;100264.31;;;24.30;40.82
40954;BME280;26686;50.130;8.710;2022-08-25T00:20:42;100262.66;;;24.29;41.07
40954;BME280;26686;50.130;8.710;2022-08-25T00:25:49;100272.50;;;24.24;41.32
40954;BME280;26686;50.130;8.710;2022-08-25T00:30:51;100263.09;;;24.20;41.16
40954;BME280;26686;50.130;8.710;2022-08-25T00:35:53;100273.13;;;24.19;41.70
40954;BME280;26686;50.130;8.710;2022-08-25T00:40:56;100275.44;;;24.22;41.59
40954;BME280;26686;50.130;8.710;2022-08-25T00:46:08;100271.47;;;24.18;42.03
40954;BME280;26686;50.130;8.710;2022-08-25T00:51:13;100269.16;;;24.15;42.35
40954;BME280;26686;50.130;8.710;2022-08-25T00:56:17;100277.75;;;24.18;42.55
40954;BME280;26686;50.130;8.710;2022-08-25T01:01:21;100266.44;;;24.15;42.83
40954;BME280;26686;50.130;8.710;2022-08-25T01:06:23;100274.81;;;24.20;43.32
40954;BME280;26686;50.130;8.710;2022-08-25T01:11:25;100264.75;;;24.14;43.68
40954;BME280;26686;50.130;8.710;2022-08-25T01:16:27;100267.09;;;24.10;44.02
40954;BME280;26686;50.130;8.710;2022-08-25T01:21:35;100269.38;;;24.13;44.34
40954;BME280;26686;50.130;8.710;2022-08-25T01:26:37;100266.47;;;24.08;44.61
40954;BME280;26686;50.130;8.710;2022-08-25T01:31:39;100273.16;;;24.06;44.42
40954;BME280;26686;50.130;8.710;2022-08-25T01:36:42;100265.84;;;23.99;44.99
40954;BME280;26686;50.130;8.710;2022-08-25T01:46:52;100275.06;;;23.85;45.24
40954;BME280;26686;50.130;8.710;2022-08-25T01:52:51;100267.09;;;23.77;45.54
40954;BME280;26686;50.130;8.710;2022-08-25T01:57:22;100270.66;;;23.71;45.89
40954;BME280;26686;50.130;8.710;2022-08-25T02:02:24;100279.84;;;23.70;45.80
40954;BME280;26686;50.130;8.710;2022-08-25T02:07:26;100280.69;;;23.50;46.15
40954;BME280;26686;50.130;8.710;2022-08-25T02:12:28;100279.03;;;23.56;46.53
40954;BME280;26686;50.130;8.710;2022-08-25T02:17:34;100281.09;;;23.54;46.86
40954;BME280;26686;50.130;8.710;2022-08-25T02:22:36;100277.75;;;23.52;46.92
40954;BME280;26686;50.130;8.710;2022-08-25T02:27:38;100274.22;;;23.51;47.11
40954;BME280;26686;50.130;8.710;2022-08-25T02:32:40;100274.00;;;23.46;47.14
40954;BME280;26686;50.130;8.710;2022-08-25T02:37:41;100275.44;;;23.42;47.50
40954;BME280;26686;50.130;8.710;2022-08-25T02:42:43;100269.19;;;23.41;47.43
40954;BME280;26686;50.130;8.710;2022-08-25T02:47:44;100271.69;;;23.43;47.53
40954;BME280;26686;50.130;8.710;2022-08-25T02:52:46;100275.22;;;23.43;47.78
40954;BME280;26686;50.130;8.710;2022-08-25T02:57:50;100271.06;;;23.41;47.59
40954;BME280;26686;50.130;8.710;2022-08-25T03:02:52;100259.34;;;23.34;47.95
40954;BME280;26686;50.130;8.710;2022-08-25T03:07:53;100255.59;;;23.28;48.53
40954;BME280;26686;50.130;8.710;2022-08-25T03:12:54;100266.03;;;23.24;48.96
40954;BME280;26686;50.130;8.710;2022-08-25T03:17:56;100261.03;;;23.21;48.83
40954;BME280;26686;50.130;8.710;2022-08-25T03:23:01;100248.91;;;23.10;48.98
40954;BME280;26686;50.130;8.710;2022-08-25T03:28:03;100258.06;;;23.09;49.25
40954;BME280;26686;50.130;8.710;2022-08-25T03:33:07;100252.59;;;23.03;49.36
40954;BME280;26686;50.130;8.710;2022-08-25T03:38:08;100249.88;;;23.03;49.73
40954;BME280;26686;50.130;8.710;2022-08-25T03:43:10;100247.56;;;23.00;49.49
40954;BME280;26686;50.130;8.710;2022-08-25T03:48:11;100239.44;;;22.93;50.02
40954;BME280;26686;50.130;8.710;2022-08-25T03:53:13;100244.41;;;22.89;50.20
40954;BME280;26686;50.130;8.710;2022-08-25T03:58:14;100241.47;;;22.84;50.39
40954;BME280;26686;50.130;8.710;2022-08-25T04:03:16;100246.72;;;22.86;50.69
40954;BME280;26686;50.130;8.710;2022-08-25T04:08:18;100254.22;;;22.90;50.59
40954;BME280;26686;50.130;8.710;2022-08-25T04:13:20;100248.19;;;22.88;50.53
40954;BME280;26686;50.130;8.710;2022-08-25T04:18:21;100241.69;;;22.83;50.96
40954;BME280;26686;50.130;8.710;2022-08-25T04:23:23;100232.91;;;22.74;51.50
40954;BME280;26686;50.130;8.710;2022-08-25T04:33:25;100236.66;;;22.73;52.29
40954;BME280;26686;50.130;8.710;2022-08-25T04:38:27;100231.41;;;22.65;52.71
40954;BME280;26686;50.130;8.710;2022-08-25T04:43:30;100239.75;;;22.56;53.24
40954;BME280;26686;50.130;8.710;2022-08-25T04:48:32;100233.25;;;22.51;53.70
40954;BME280;26686;50.130;8.710;2022-08-25T04:53:34;100238.88;;;22.49;54.34
40954;BME280;26686;50.130;8.710;2022-08-25T04:58:37;100250.75;;;22.48;54.47
40954;BME280;26686;50.130;8.710;2022-08-25T05:03:39;100261.16;;;22.45;54.92
40954;BME280;26686;50.130;8.710;2022-08-25T05:08:40;100255.69;;;22.38;55.18
40954;BME280;26686;50.130;8.710;2022-08-25T05:13:43;100252.38;;;22.42;55.35
40954;BME280;26686;50.130;8.710;2022-08-25T05:18:52;100245.94;;;22.44;55.34
40954;BME280;26686;50.130;8.710;2022-08-25T05:23:58;100248.03;;;22.48;55.33
40954;BME280;26686;50.130;8.710;2022-08-25T05:29:01;100236.56;;;22.46;55.95
40954;BME280;26686;50.130;8.710;2022-08-25T05:34:06;100235.75;;;22.52;55.96
40954;BME280;26686;50.130;8.710;2022-08-25T05:39:07;100238.25;;;22.54;55.95
40954;BME280;26686;50.130;8.710;2022-08-25T05:44:09;100235.34;;;22.55;56.05
40954;BME280;26686;50.130;8.710;2022-08-25T05:49:12;100221.16;;;22.53;55.78
40954;BME280;26686;50.130;8.710;2022-08-25T05:54:14;100229.72;;;22.64;56.02
40954;BME280;26686;50.130;8.710;2022-08-25T06:04:17;100233.34;;;22.84;55.89
40954;BME280;26686;50.130;8.710;2022-08-25T06:09:21;100234.00;;;23.00;55.63
40954;BME280;26686;50.130;8.710;2022-08-25T06:14:23;100233.88;;;23.21;54.87
40954;BME280;26686;50.130;8.710;2022-08-25T06:19:25;100230.75;;;23.38;54.42
40954;BME280;26686;50.130;8.710;2022-08-25T06:24:27;100229.28;;;23.55;54.24
40954;BME280;26686;50.130;8.710;2022-08-25T06:29:29;100228.00;;;23.71;54.19
40954;BME280;26686;50.130;8.710;2022-08-25T06:34:31;100226.13;;;23.72;54.40
40954;BME280;26686;50.130;8.710;2022-08-25T06:39:32;100231.38;;;23.93;53.97
40954;BME280;26686;50.130;8.710;2022-08-25T06:44:34;100233.41;;;24.11;53.58
40954;BME280;26686;50.130;8.710;2022-08-25T06:49:36;100228.50;;;24.33;53.04
40954;BME280;26686;50.130;8.710;2022-08-25T06:54:38;100224.72;;;24.48;52.83
40954;BME280;26686;50.130;8.710;2022-08-25T06:59:39;100224.84;;;24.66;52.77
40954;BME280;26686;50.130;8.710;2022-08-25T07:04:42;100223.53;;;24.82;52.50
40954;BME280;26686;50.130;8.710;2022-08-25T07:09:43;100227.69;;;24.85;52.19
40954;BME280;26686;50.130;8.710;2022-08-25T07:14:44;100223.91;;;24.86;52.62
40954;BME280;26686;50.130;8.710;2022-08-25T07:20:04;100221.28;;;25.36;51.85
40954;BME280;26686;50.130;8.710;2022-08-25T07:25:06;100225.97;;;25.54;50.85
40954;BME280;26686;50.130;8.710;2022-08-25T07:30:08;100217.44;;;25.69;50.98
40954;BME280;26686;50.130;8.710;2022-08-25T07:35:11;100209.28;;;25.88;50.78
40954;BME280;26686;50.130;8.710;2022-08-25T07:40:22;100204.03;;;26.11;50.10
40954;BME280;26686;50.130;8.710;2022-08-25T07:45:27;100208.88;;;26.28;49.65
40954;BME280;26686;50.130;8.710;2022-08-25T07:50:31;100204.75;;;26.56;48.79
40954;BME280;26686;50.130;8.710;2022-08-25T07:55:33;100201.25;;;26.67;48.99
40954;BME280;26686;50.130;8.710;2022-08-25T08:00:37;100200.63;;;26.84;48.29
40954;BME280;26686;50.130;8.710;2022-08-25T08:05:42;100201.50;;;27.08;48.05
40954;BME280;26686;50.130;8.710;2022-08-25T08:10:43;100200.13;;;27.29;47.08
40954;BME280;26686;50.130;8.710;2022-08-25T08:16:13;100213.47;;;27.37;46.38
40954;BME280;26686;50.130;8.710;2022-08-25T08:21:26;100210.63;;;27.44;46.62
40954;BME280;26686;50.130;8.710;2022-08-25T08:26:30;100204.22;;;27.74;46.57
40954;BME280;26686;50.130;8.710;2022-08-25T08:31:51;100199.34;;;27.99;44.87
40954;BME280;26686;50.130;8.710;2022-08-25T08:36:53;100191.00;;;27.94;45.08
40954;BME280;26686;50.130;8.710;2022-08-25T08:42:03;100193.94;;;28.16;44.55
40954;BME280;26686;50.130;8.710;2022-08-25T08:52:43;100190.78;;;28.60;42.30
40954;BME280;26686;50.130;8.710;2022-08-25T08:57:50;100190.34;;;28.68;41.36
40954;BME280;26686;50.130;8.710;2022-08-25T09:03:05;100178.66;;;28.73;42.35
40954;BME280;26686;50.130;8.710;2022-08-25T09:08:08;100193.28;;;29.24;41.20
40954;BME280;26686;50.130;8.710;2022-08-25T09:13:15;100181.38;;;29.53;40.72
40954;BME280;26686;50.130;8.710;2022-08-25T09:18:34;100171.53;;;29.74;39.82
40954;BME280;26686;50.130;8.710;2022-08-25T09:34:51;100148.69;;;30.52;38.22
40954;BME280;26686;50.130;8.710;2022-08-25T09:39:57;100146.69;;;31.01;36.33
40954;BME280;26686;50.130;8.710;2022-08-25T09:44:59;100143.31;;;31.27;36.33
40954;BME280;26686;50.130;8.710;2022-08-25T09:50:02;100136.84;;;31.86;34.84
40954;BME280;26686;50.130;8.710;2022-08-25T10:00:20;100107.91;;;32.72;34.54
40954;BME280;26686;50.130;8.710;2022-08-25T10:05:25;100107.91;;;32.98;34.84
40954;BME280;26686;50.130;8.710;2022-08-25T10:15:35;100087.75;;;34.14;32.59
40954;BME280;26686;50.130;8.710;2022-08-25T10:20:37;100082.69;;;35.01;30.55
40954;BME280;26686;50.130;8.710;2022-08-25T10:25:47;100080.78;;;37.82;27.43
40954;BME280;26686;50.130;8.710;2022-08-25T10:31:07;100069.38;;;41.26;22.74
40954;BME280;26686;50.130;8.710;2022-08-25T10:36:21;100057.38;;;41.64;21.65
40954;BME280;26686;50.130;8.710;2022-08-25T10:46:52;100043.63;;;37.50;26.00
40954;BME280;26686;50.130;8.710;2022-08-25T10:52:02;100032.16;;;40.39;23.08
40954;BME280;26686;50.130;8.710;2022-08-25T10:57:17;100028.84;;;44.00;18.64
40954;BME280;26686;50.130;8.710;2022-08-25T11:07:49;100013.69;;;47.43;16.33
40954;BME280;26686;50.130;8.710;2022-08-25T11:12:54;100008.84;;;41.09;21.50
40954;BME280;26686;50.130;8.710;2022-08-25T11:18:08;100018.75;;;37.59;25.01
40954;BME280;26686;50.130;8.710;2022-08-25T11:23:28;100007.78;;;41.31;21.55
40954;BME280;26686;50.130;8.710;2022-08-25T11:29:05;100003.03;;;41.31;21.42
40954;BME280;26686;50.130;8.710;2022-08-25T11:34:12;100000.00;;;44.27;18.16
40954;BME280;26686;50.130;8.710;2022-08-25T11:39:49;99992.88;;;44.30;17.78
40954;BME280;26686;50.130;8.710;2022-08-25T11:45:25;99994.34;;;46.07;15.47
40954;BME280;26686;50.130;8.710;2022-08-25T11:50:33;99986.88;;;46.57;14.06
40954;BME280;26686;50.130;8.710;2022-08-25T12:00:40;99982.88;;;46.35;14.28
40954;BME280;26686;50.130;8.710;2022-08-25T12:11:05;99976.34;;;43.72;17.76
40954;BME280;26686;50.130;8.710;2022-08-25T12:21:35;99966.50;;;40.68;20.39
40954;BME280;26686;50.130;8.710;2022-08-25T12:26:56;99966.38;;;40.38;21.33
40954;BME280;26686;50.130;8.710;2022-08-25T12:37:58;99962.59;;;36.32;25.38
40954;BME280;26686;50.130;8.710;2022-08-25T12:43:12;99958.50;;;36.29;26.21
40954;BME280;26686;50.130;8.710;2022-08-25T12:53:35;99954.13;;;37.03;24.75
40954;BME280;26686;50.130;8.710;2022-08-25T12:58:49;99953.94;;;36.66;24.91
40954;BME280;26686;50.130;8.710;2022-08-25T13:14:55;99931.88;;;36.47;24.76
40954;BME280;26686;50.130;8.710;2022-08-25T13:20:24;99928.91;;;36.71;24.42
40954;BME280;26686;50.130;8.710;2022-08-25T13:25:27;99919.25;;;36.69;23.52
40954;BME280;26686;50.130;8.710;2022-08-25T13:30:34;99914.03;;;36.20;24.15
40954;BME280;26686;50.130;8.710;2022-08-25T13:35:36;99901.81;;;35.88;24.62
40954;BME280;26686;50.130;8.710;2022-08-25T13:40:37;99893.03;;;35.62;24.81
40954;BME280;26686;50.130;8.710;2022-08-25T13:45:45;99894.53;;;35.35;26.20
40954;BME280;26686;50.130;8.710;2022-08-25T13:50:47;99892.72;;;35.26;25.28
40954;BME280;26686;50.130;8.710;2022-08-25T13:55:56;99898.19;;;35.31;25.06
40954;BME280;26686;50.130;8.710;2022-08-25T14:06:36;99878.88;;;35.26;24.45
40954;BME280;26686;50.130;8.710;2022-08-25T14:11:42;99888.88;;;35.21;25.14
40954;BME280;26686;50.130;8.710;2022-08-25T14:16:52;99877.66;;;34.94;25.42
40954;BME280;26686;50.130;8.710;2022-08-25T14:21:58;99869.59;;;34.44;25.53
40954;BME280;26686;50.130;8.710;2022-08-25T14:27:03;99866.41;;;34.31;26.70
40954;BME280;26686;50.130;8.710;2022-08-25T14:32:05;99856.19;;;33.63;27.07
40954;BME280;26686;50.130;8.710;2022-08-25T14:37:15;99845.28;;;33.42;27.37
40954;BME280;26686;50.130;8.710;2022-08-25T14:42:16;99841.22;;;33.29;27.84
40954;BME280;26686;50.130;8.710;2022-08-25T14:47:18;99844.38;;;33.07;27.79
40954;BME280;26686;50.130;8.710;2022-08-25T14:52:25;99832.84;;;32.90;28.59
40954;BME280;26686;50.130;8.710;2022-08-25T14:57:27;99840.19;;;33.15;28.87
40954;BME280;26686;50.130;8.710;2022-08-25T15:02:29;99832.75;;;33.10;28.66
40954;BME280;26686;50.130;8.710;2022-08-25T15:07:35;99831.09;;;33.20;28.96
40954;BME280;26686;50.130;8.710;2022-08-25T15:12:55;99823.97;;;33.03;28.57
40954;BME280;26686;50.130;8.710;2022-08-25T15:17:57;99821.94;;;32.54;29.30
40954;BME280;26686;50.130;8.710;2022-08-25T15:23:01;99816.44;;;32.49;29.30
40954;BME280;26686;50.130;8.710;2022-08-25T15:28:04;99810.66;;;32.55;29.62
40954;BME280;26686;50.130;8.710;2022-08-25T15:33:10;99807.59;;;32.52;30.07
40954;BME280;26686;50.130;8.710;2022-08-25T15:38:12;99808.75;;;32.40;30.21
40954;BME280;26686;50.130;8.710;2022-08-25T15:43:13;99811.00;;;32.07;30.65
40954;BME280;26686;50.130;8.710;2022-08-25T15:48:16;99813.78;;;31.82;30.63
40954;BME280;26686;50.130;8.710;2022-08-25T15:53:18;99825.31;;;31.58;30.59
40954;BME280;26686;50.130;8.710;2022-08-25T15:58:22;99803.81;;;31.34;30.63
40954;BME280;26686;50.130;8.710;2022-08-25T16:03:24;99805.47;;;31.35;30.33
40954;BME280;26686;50.130;8.710;2022-08-25T16:08:25;99797.22;;;31.35;30.40
40954;BME280;26686;50.130;8.710;2022-08-25T16:13:26;99793.34;;;31.26;30.80
40954;BME280;26686;50.130;8.710;2022-08-25T16:18:28;99802.94;;;31.13;30.57
40954;BME280;26686;50.130;8.710;2022-08-25T16:23:29;99805.13;;;31.06;30.64
40954;BME280;26686;50.130;8.710;2022-08-25T16:28:35;99793.31;;;31.06;30.78
40954;BME280;26686;50.130;8.710;2022-08-25T16:33:37;99784.22;;;31.00;31.22
40954;BME280;26686;50.130;8.710;2022-08-25T16:38:39;99788.56;;;30.91;30.77
40954;BME280;26686;50.130;8.710;2022-08-25T16:43:42;99787.97;;;30.83;30.88
40954;BME280;26686;50.130;8.710;2022-08-25T16:48:43;99786.59;;;30.76;30.98
40954;BME280;26686;50.130;8.710;2022-08-25T16:53:45;99775.84;;;30.69;30.85
40954;BME280;26686;50.130;8.710;2022-08-25T16:59:08;99777.75;;;30.63;31.05
40954;BME280;26686;50.130;8.710;2022-08-25T17:04:10;99774.41;;;30.51;31.20
40954;BME280;26686;50.130;8.710;2022-08-25T17:09:13;99780.41;;;30.43;31.23
40954;BME280;26686;50.130;8.710;2022-08-25T17:14:23;99778.13;;;30.35;31.44
40954;BME280;26686;50.130;8.710;2022-08-25T17:19:24;99773.19;;;30.31;31.67
40954;BME280;26686;50.130;8.710;2022-08-25T17:24:26;99775.88;;;30.21;31.50
40954;BME280;26686;50.130;8.710;2022-08-25T17:29:32;99783.81;;;30.18;31.65
40954;BME280;26686;50.130;8.710;2022-08-25T17:34:35;99780.75;;;30.09;31.95
40954;BME280;26686;50.130;8.710;2022-08-25T17:39:37;99772.16;;;30.00;32.18
40954;BME280;26686;50.130;8.710;2022-08-25T17:44:39;99778.41;;;29.90;32.01
40954;BME280;26686;50.130;8.710;2022-08-25T17:49:40;99781.56;;;29.77;32.12
40954;BME280;26686;50.130;8.710;2022-08-25T17:54:41;99776.03;;;29.67;32.29
40954;BME280;26686;50.130;8.710;2022-08-25T17:59:44;99784.50;;;29.65;32.49
40954;BME280;26686;50.130;8.710;2022-08-25T18:04:45;99787.41;;;29.53;32.88
40954;BME280;26686;50.130;8.710;2022-08-25T18:09:46;99793.34;;;29.45;32.95
40954;BME280;26686;50.130;8.710;2022-08-25T18:14:48;99785.56;;;29.32;33.08
40954;BME280;26686;50.130;8.710;2022-08-25T18:19:50;99790.13;;;29.21;33.17
40954;BME280;26686;50.130;8.710;2022-08-25T18:24:51;99799.59;;;29.13;33.53
40954;BME280;26686;50.130;8.710;2022-08-25T18:29:55;99806.09;;;29.07;33.39
40954;BME280;26686;50.130;8.710;2022-08-25T18:34:57;99802.19;;;28.98;34.38
40954;BME280;26686;50.130;8.710;2022-08-25T18:39:58;99807.00;;;28.90;34.39
40954;BME280;26686;50.130;8.710;2022-08-25T18:45:22;99795.69;;;28.82;34.83
40954;BME280;26686;50.130;8.710;2022-08-25T18:50:27;99799.13;;;28.72;34.36
40954;BME280;26686;50.130;8.710;2022-08-25T18:55:28;99802.00;;;28.60;34.78
40954;BME280;26686;50.130;8.710;2022-08-25T19:00:32;99800.47;;;28.52;35.07
40954;BME280;26686;50.130;8.710;2022-08-25T19:05:36;99810.84;;;28.50;34.91
40954;BME280;26686;50.130;8.710;2022-08-25T19:10:38;99814.59;;;28.44;34.91
40954;BME280;26686;50.130;8.710;2022-08-25T19:15:43;99813.13;;;28.36;35.66
40954;BME280;26686;50.130;8.710;2022-08-25T19:20:45;99817.19;;;28.34;36.16
40954;BME280;26686;50.130;8.710;2022-08-25T19:25:46;99816.53;;;28.27;36.34
40954;BME280;26686;50.130;8.710;2022-08-25T19:30:48;99807.69;;;28.19;36.31
40954;BME280;26686;50.130;8.710;2022-08-25T19:35:51;99803.72;;;28.10;36.80
40954;BME280;26686;50.130;8.710;2022-08-25T19:40:53;99808.03;;;28.06;37.16
40954;BME280;26686;50.130;8.710;2022-08-25T19:45:54;99808.34;;;27.93;37.29
40954;BME280;26686;50.130;8.710;2022-08-25T19:50:57;99817.13;;;27.78;37.60
40954;BME280;26686;50.130;8.710;2022-08-25T19:55:58;99818.75;;;27.62;37.77
40954;BME280;26686;50.130;8.710;2022-08-25T20:01:02;99813.97;;;27.52;37.83
40954;BME280;26686;50.130;8.710;2022-08-25T20:06:04;99817.59;;;27.58;37.65
40954;BME280;26686;50.130;8.710;2022-08-25T20:11:05;99811.88;;;27.59;38.03
40954;BME280;26686;50.130;8.710;2022-08-25T20:16:07;99818.00;;;27.49;38.05
40954;BME280;26686;50.130;8.710;2022-08-25T20:21:08;99818.41;;;27.41;38.43
40954;BME280;26686;50.130;8.710;2022-08-25T20:26:10;99825.44;;;27.37;39.10
40954;BME280;26686;50.130;8.710;2022-08-25T20:31:11;99825.78;;;27.29;38.86
40954;BME280;26686;50.130;8.710;2022-08-25T20:36:14;99827.22;;;27.31;38.92
40954;BME280;26686;50.130;8.710;2022-08-25T20:41:16;99821.44;;;27.28;38.44
40954;BME280;26686;50.130;8.710;2022-08-25T20:46:18;99827.25;;;27.20;39.96
40954;BME280;26686;50.130;8.710;2022-08-25T20:51:20;99831.22;;;27.12;38.93
40954;BME280;26686;50.130;8.710;2022-08-25T20:56:23;99831.09;;;27.07;39.49
40954;BME280;26686;50.130;8.710;2022-08-25T21:01:27;99830.69;;;26.98;39.53
40954;BME280;26686;50.130;8.710;2022-08-25T21:06:40;99823.47;;;26.80;39.92
40954;BME280;26686;50.130;8.710;2022-08-25T21:11:42;99828.09;;;26.79;39.95
40954;BME280;26686;50.130;8.710;2022-08-25T21:16:45;99821.84;;;26.67;40.61
40954;BME280;26686;50.130;8.710;2022-08-25T21:21:47;99821.00;;;26.55;40.59
40954;BME280;26686;50.130;8.710;2022-08-25T21:26:52;99827.53;;;26.54;40.23
40954;BME280;26686;50.130;8.710;2022-08-25T21:31:55;99825.75;;;26.48;40.94
40954;BME280;26686;50.130;8.710;2022-08-25T21:36:58;99825.75;;;26.48;41.05
40954;BME280;26686;50.130;8.710;2022-08-25T21:42:00;99825.28;;;26.39;40.90
40954;BME280;26686;50.130;8.710;2022-08-25T21:47:02;99825.75;;;26.36;41.66
40954;BME280;26686;50.130;8.710;2022-08-25T21:52:04;99828.38;;;26.31;41.58
40954;BME280;26686;50.130;8.710;2022-08-25T21:57:06;99830.25;;;26.30;41.76
40954;BME280;26686;50.130;8.710;2022-08-25T22:02:09;99832.63;;;26.15;43.02
40954;BME280;26686;50.130;8.710;2022-08-25T22:07:11;99829.66;;;26.04;43.21
40954;BME280;26686;50.130;8.710;2022-08-25T22:12:13;99827.28;;;25.96;43.37
40954;BME280;26686;50.130;8.710;2022-08-25T22:17:15;99823.34;;;25.92;43.71
40954;BME280;26686;50.130;8.710;2022-08-25T22:22:21;99815.53;;;25.84;43.63
40954;BME280;26686;50.130;8.710;2022-08-25T22:27:24;99818.09;;;25.79;44.17
40954;BME280;26686;50.130;8.710;2022-08-25T22:32:25;99820.97;;;25.84;43.99
40954;BME280;26686;50.130;8.710;2022-08-25T22:37:26;99820.72;;;25.73;43.92
40954;BME280;26686;50.130;8.710;2022-08-25T22:42:30;99825.19;;;25.68;44.03
40954;BME280;26686;50.130;8.710;2022-08-25T22:47:31;99822.13;;;25.64;44.47
40954;BME280;26686;50.130;8.710;2022-08-25T22:52:33;99828.25;;;25.59;44.60
40954;BME280;26686;50.130;8.710;2022-08-25T22:57:35;99829.56;;;25.57;44.47
40954;BME280;26686;50.130;8.710;2022-08-25T23:02:40;99831.22;;;25.58;44.10
40954;BME280;26686;50.130;8.710;2022-08-25T23:07:41;99832.38;;;25.50;45.73
40954;BME280;26686;50.130;8.710;2022-08-25T23:12:43;99821.44;;;25.38;45.29
40954;BME280;26686;50.130;8.710;2022-08-25T23:17:44;99820.03;;;25.36;44.72
40954;BME280;26686;50.130;8.710;2022-08-25T23:22:45;99810.41;;;25.33;45.06
40954;BME280;26686;50.130;8.710;2022-08-25T23:27:50;99818.44;;;25.28;45.43
40954;BME280;26686;50.130;8.710;2022-08-25T23:32:52;99814.84;;;25.28;44.67
40954;BME280;26686;50.130;8.710;2022-08-25T23:37:53;99823.59;;;25.18;45.74
40954;BME280;26686;50.130;8.710;2022-08-25T23:42:55;99809.81;;;25.13;46.39
40954;BME280;26686;50.130;8.710;2022-08-25T23:47:56;99808.63;;;25.09;45.70
40954;BME280;26686;50.130;8.710;2022-08-25T23:52:58;99810.75;;;25.06;45.90
40954;BME280;26686;50.130;8.710;2022-08-25T23:57:59;99799.56;;;24.96;45.83
